createdAt,value
2019-03-27T00:00:16.008Z,32.83
2019-03-27T00:01:23.531Z,37.23
2019-03-27T00:02:31.375Z,43.07
2019-03-27T00:03:38.841Z,32.23
2019-03-27T00:04:46.681Z,21.87
2019-03-27T00:05:54.217Z,28.77
2019-03-27T00:07:02.401Z,30.07
2019-03-27T00:08:10.396Z,32.63
2019-03-27T00:09:17.964Z,34.53
2019-03-27T00:10:25.780Z,28.57
2019-03-27T00:11:33.313Z,34.30
2019-03-27T00:12:40.992Z,30.57
2019-03-27T00:13:48.501Z,33.30
2019-03-27T00:14:55.960Z,33.30
2019-03-27T00:16:03.863Z,23.40
2019-03-27T00:17:12.143Z,37.27
2019-03-27T00:18:19.668Z,48.43
2019-03-27T00:19:27.229Z,28.47
2019-03-27T00:20:34.758Z,39.27
2019-03-27T00:21:42.558Z,34.07
2019-03-27T00:22:50.419Z,37.03
2019-03-27T00:24:01.259Z,34.20
2019-03-27T00:25:09.792Z,27.33
2019-03-27T00:26:17.529Z,44.60
2019-03-27T00:27:25.673Z,34.67
2019-03-27T00:28:33.437Z,40.07
2019-03-27T00:29:41.212Z,29.67
2019-03-27T00:30:49.099Z,37.60
2019-03-27T00:31:57.050Z,38.73
2019-03-27T00:33:05.061Z,28.07
2019-03-27T00:34:12.956Z,31.50
2019-03-27T00:35:20.743Z,42.20
2019-03-27T00:36:28.350Z,35.13
2019-03-27T00:37:36.761Z,26.20
2019-03-27T00:38:44.652Z,35.77
2019-03-27T00:39:52.381Z,33.27
2019-03-27T00:41:00.602Z,46.93
2019-03-27T00:42:09.209Z,35.30
2019-03-27T00:43:17.238Z,27.07
2019-03-27T00:44:25.128Z,33.47
2019-03-27T00:45:33.159Z,50.37
2019-03-27T00:46:41.026Z,35.93
2019-03-27T00:47:48.488Z,51.17
2019-03-27T00:48:56.241Z,36.97
2019-03-27T00:50:03.741Z,38.67
2019-03-27T00:51:11.553Z,43.60
2019-03-27T00:52:19.079Z,31.60
2019-03-27T00:53:26.868Z,38.80
2019-03-27T00:54:34.728Z,36.30
2019-03-27T00:55:42.798Z,31.87
2019-03-27T00:56:50.604Z,35.53
2019-03-27T00:57:58.066Z,34.03
2019-03-27T00:59:06.836Z,27.50
2019-03-27T01:00:26.563Z,46.67
2019-03-27T01:01:34.055Z,39.63
2019-03-27T01:02:41.559Z,27.70
2019-03-27T01:03:49.088Z,30.97
2019-03-27T01:04:56.599Z,25.17
2019-03-27T01:06:04.713Z,24.50
2019-03-27T01:07:12.173Z,26.17
2019-03-27T01:08:20.026Z,27.57
2019-03-27T01:09:27.950Z,31.60
2019-03-27T01:10:35.440Z,34.80
2019-03-27T01:11:42.902Z,31.10
2019-03-27T01:12:50.430Z,28.83
2019-03-27T01:13:58.186Z,45.13
2019-03-27T01:15:06.232Z,42.93
2019-03-27T01:16:13.765Z,28.83
2019-03-27T01:17:21.269Z,27.33
2019-03-27T01:18:28.734Z,29.67
2019-03-27T01:19:36.218Z,25.93
2019-03-27T01:20:43.785Z,28.93
2019-03-27T01:21:51.209Z,34.37
2019-03-27T01:22:59.216Z,35.40
2019-03-27T01:24:07.003Z,31.73
2019-03-27T01:25:14.800Z,28.70
2019-03-27T01:26:22.276Z,34.47
2019-03-27T01:27:30.255Z,31.83
2019-03-27T01:28:37.871Z,31.13
2019-03-27T01:29:45.374Z,33.07
2019-03-27T01:30:53.159Z,34.77
2019-03-27T01:32:00.660Z,32.80
2019-03-27T01:33:08.176Z,24.77
2019-03-27T01:34:15.766Z,35.58
2019-03-27T01:35:23.329Z,27.73
2019-03-27T01:36:30.854Z,39.03
2019-03-27T01:37:38.760Z,28.07
2019-03-27T01:38:46.599Z,33.20
2019-03-27T01:39:54.129Z,20.47
2019-03-27T01:41:01.622Z,24.97
2019-03-27T01:42:10.480Z,25.83
2019-03-27T01:43:18.345Z,35.77
2019-03-27T01:44:26.081Z,32.07
2019-03-27T01:45:33.585Z,25.80
2019-03-27T01:46:41.391Z,27.83
2019-03-27T01:47:48.863Z,25.67
2019-03-27T01:48:56.681Z,25.30
2019-03-27T01:50:04.432Z,26.63
2019-03-27T01:51:11.961Z,27.63
2019-03-27T01:52:19.427Z,36.70
2019-03-27T01:53:26.928Z,28.83
2019-03-27T01:54:34.785Z,39.10
2019-03-27T01:55:42.767Z,20.43
2019-03-27T01:56:50.198Z,28.80
2019-03-27T01:57:57.705Z,25.17
2019-03-27T01:59:05.177Z,32.87
2019-03-27T02:00:13.292Z,28.27
2019-03-27T02:01:20.924Z,23.93
2019-03-27T02:02:28.656Z,18.17
2019-03-27T02:03:37.201Z,16.53
2019-03-27T02:04:44.683Z,22.23
2019-03-27T02:05:52.504Z,18.17
2019-03-27T02:07:00.007Z,21.30
2019-03-27T02:08:07.534Z,36.33
2019-03-27T02:09:15.018Z,21.13
2019-03-27T02:10:22.847Z,16.23
2019-03-27T02:11:30.604Z,24.17
2019-03-27T02:12:38.141Z,19.13
2019-03-27T02:13:45.606Z,31.30
2019-03-27T02:14:53.092Z,24.50
2019-03-27T02:16:07.054Z,29.27
2019-03-27T02:17:10.458Z,22.77
2019-03-27T02:18:17.955Z,22.87
2019-03-27T02:19:26.088Z,23.60
2019-03-27T02:20:34.338Z,17.17
2019-03-27T02:21:42.266Z,23.30
2019-03-27T02:22:49.778Z,18.20
2019-03-27T02:23:57.578Z,26.13
2019-03-27T02:25:05.369Z,26.33
2019-03-27T02:26:13.916Z,25.63
2019-03-27T02:27:21.523Z,26.30
2019-03-27T02:28:29.385Z,24.80
2019-03-27T02:29:36.853Z,30.87
2019-03-27T02:30:44.665Z,20.50
2019-03-27T02:31:52.566Z,34.70
2019-03-27T02:33:00.028Z,28.53
2019-03-27T02:34:07.625Z,39.83
2019-03-27T02:35:15.475Z,23.50
2019-03-27T02:36:23.401Z,26.83
2019-03-27T02:37:30.845Z,25.37
2019-03-27T02:38:38.313Z,21.25
2019-03-27T02:39:45.779Z,22.77
2019-03-27T02:40:53.318Z,24.00
2019-03-27T02:42:01.241Z,30.50
2019-03-27T02:43:09.323Z,30.43
2019-03-27T02:44:16.919Z,26.33
2019-03-27T02:45:24.397Z,39.87
2019-03-27T02:46:32.003Z,30.40
2019-03-27T02:47:39.451Z,32.57
2019-03-27T02:48:47.234Z,30.43
2019-03-27T02:49:54.722Z,32.08
2019-03-27T02:51:02.234Z,42.27
2019-03-27T02:52:09.713Z,29.52
2019-03-27T02:53:17.670Z,26.60
2019-03-27T02:54:25.868Z,32.30
2019-03-27T02:55:34.129Z,33.97
2019-03-27T02:56:41.614Z,22.90
2019-03-27T02:57:49.396Z,26.93
2019-03-27T02:58:56.918Z,24.27
2019-03-27T03:00:05.321Z,27.60
2019-03-27T03:01:12.823Z,31.53
2019-03-27T03:02:20.706Z,34.20
2019-03-27T03:03:28.264Z,27.03
2019-03-27T03:04:36.136Z,32.50
2019-03-27T03:05:44.065Z,36.73
2019-03-27T03:06:52.289Z,39.93
2019-03-27T03:08:00.564Z,28.00
2019-03-27T03:09:09.011Z,33.83
2019-03-27T03:10:17.136Z,34.67
2019-03-27T03:11:24.621Z,32.87
2019-03-27T03:12:32.337Z,37.07
2019-03-27T03:13:39.832Z,31.33
2019-03-27T03:14:47.605Z,34.73
2019-03-27T03:15:55.066Z,25.97
2019-03-27T03:17:02.596Z,25.02
2019-03-27T03:18:10.384Z,23.93
2019-03-27T03:19:17.881Z,30.97
2019-03-27T03:20:25.383Z,24.32
2019-03-27T03:21:32.854Z,22.77
2019-03-27T03:22:40.730Z,25.92
2019-03-27T03:23:48.301Z,22.30
2019-03-27T03:24:55.768Z,37.73
2019-03-27T03:26:03.650Z,26.60
2019-03-27T03:27:11.580Z,21.07
2019-03-27T03:28:19.423Z,26.60
2019-03-27T03:29:27.002Z,23.95
2019-03-27T03:30:34.608Z,29.77
2019-03-27T03:31:42.123Z,24.98
2019-03-27T03:32:49.613Z,22.70
2019-03-27T03:33:57.525Z,17.67
2019-03-27T03:35:05.254Z,27.77
2019-03-27T03:36:13.405Z,27.32
2019-03-27T03:37:20.867Z,22.62
2019-03-27T03:38:28.351Z,20.35
2019-03-27T03:39:36.051Z,29.07
2019-03-27T03:40:43.640Z,26.75
2019-03-27T03:41:51.507Z,27.25
2019-03-27T03:42:59.212Z,27.33
2019-03-27T03:44:06.841Z,19.23
2019-03-27T03:45:14.992Z,42.67
2019-03-27T03:46:22.477Z,21.17
2019-03-27T03:47:30.147Z,28.32
2019-03-27T03:48:37.960Z,19.73
2019-03-27T03:49:45.822Z,25.23
2019-03-27T03:50:56.782Z,17.43
2019-03-27T03:52:05.124Z,24.25
2019-03-27T03:53:15.033Z,21.20
2019-03-27T03:54:23.362Z,26.27
2019-03-27T03:55:32.544Z,11.77
2019-03-27T03:56:42.915Z,23.18
2019-03-27T03:57:51.094Z,28.40
2019-03-27T03:59:01.258Z,26.30
2019-03-27T04:00:09.424Z,25.20
2019-03-27T04:01:20.246Z,18.50
2019-03-27T04:02:32.614Z,24.63
2019-03-27T04:03:42.515Z,28.87
2019-03-27T04:04:52.954Z,29.52
2019-03-27T04:06:00.435Z,18.45
2019-03-27T04:07:08.237Z,20.30
2019-03-27T04:08:15.783Z,31.77
2019-03-27T04:09:23.625Z,31.45
2019-03-27T04:10:31.562Z,21.95
2019-03-27T04:11:39.014Z,24.77
2019-03-27T04:12:47.317Z,18.82
2019-03-27T04:13:56.054Z,30.65
2019-03-27T04:15:03.930Z,18.10
2019-03-27T04:16:11.452Z,25.17
2019-03-27T04:17:18.957Z,24.25
2019-03-27T04:18:26.737Z,18.35
2019-03-27T04:19:35.015Z,22.77
2019-03-27T04:20:42.928Z,20.00
2019-03-27T04:21:50.405Z,31.97
2019-03-27T04:22:57.886Z,26.70
2019-03-27T04:24:05.661Z,45.97
2019-03-27T04:25:13.281Z,27.50
2019-03-27T04:26:20.782Z,24.05
2019-03-27T04:27:28.946Z,27.80
2019-03-27T04:28:36.405Z,27.43
2019-03-27T04:29:44.721Z,34.03
2019-03-27T04:30:52.674Z,33.37
2019-03-27T04:32:00.211Z,29.87
2019-03-27T04:33:08.044Z,36.60
2019-03-27T04:34:15.948Z,39.42
2019-03-27T04:35:23.861Z,30.25
2019-03-27T04:36:31.745Z,39.13
2019-03-27T04:37:39.317Z,30.77
2019-03-27T04:38:47.125Z,43.00
2019-03-27T04:39:54.632Z,32.63
2019-03-27T04:41:02.793Z,34.80
2019-03-27T04:42:10.370Z,32.40
2019-03-27T04:43:18.659Z,49.07
2019-03-27T04:44:26.539Z,26.15
2019-03-27T04:45:34.216Z,35.57
2019-03-27T04:46:41.720Z,36.23
2019-03-27T04:47:49.285Z,38.20
2019-03-27T04:48:57.138Z,38.00
2019-03-27T04:50:05.043Z,37.20
2019-03-27T04:51:12.876Z,36.83
2019-03-27T04:52:20.601Z,26.55
2019-03-27T04:53:28.104Z,30.57
2019-03-27T04:54:35.684Z,29.15
2019-03-27T04:55:43.543Z,25.95
2019-03-27T04:56:51.405Z,23.80
2019-03-27T04:57:59.112Z,20.23
2019-03-27T04:59:07.053Z,22.70
2019-03-27T05:00:15.230Z,32.30
2019-03-27T05:01:23.483Z,30.80
2019-03-27T05:02:31.457Z,33.23
2019-03-27T05:03:39.305Z,42.30
2019-03-27T05:04:47.400Z,37.78
2019-03-27T05:05:54.884Z,32.58
2019-03-27T05:07:02.353Z,42.17
2019-03-27T05:08:09.826Z,35.98
2019-03-27T05:09:17.904Z,32.03
2019-03-27T05:10:25.393Z,43.55
2019-03-27T05:11:33.716Z,36.30
2019-03-27T05:12:41.353Z,43.60
2019-03-27T05:13:48.843Z,35.60
2019-03-27T05:14:56.751Z,38.90
2019-03-27T05:16:04.310Z,38.13
2019-03-27T05:17:11.832Z,43.33
2019-03-27T05:18:19.343Z,37.63
2019-03-27T05:19:26.853Z,35.85
2019-03-27T05:20:35.138Z,34.33
2019-03-27T05:21:42.649Z,27.80
2019-03-27T05:22:51.287Z,34.88
2019-03-27T05:23:58.905Z,35.10
2019-03-27T05:25:06.647Z,37.08
2019-03-27T05:26:14.524Z,36.20
2019-03-27T05:27:22.040Z,35.05
2019-03-27T05:28:29.504Z,53.73
2019-03-27T05:29:37.381Z,41.63
2019-03-27T05:30:44.955Z,51.37
2019-03-27T05:31:52.898Z,56.25
2019-03-27T05:33:00.801Z,44.38
2019-03-27T05:34:08.440Z,51.55
2019-03-27T05:35:16.321Z,33.88
2019-03-27T05:36:23.881Z,47.73
2019-03-27T05:37:31.761Z,42.30
2019-03-27T05:38:39.253Z,42.25
2019-03-27T05:39:46.893Z,42.88
2019-03-27T05:40:54.372Z,46.25
2019-03-27T05:42:02.260Z,58.85
2019-03-27T05:43:10.027Z,40.40
2019-03-27T05:44:17.547Z,54.85
2019-03-27T05:45:25.310Z,47.83
2019-03-27T05:46:33.114Z,59.45
2019-03-27T05:47:41.054Z,45.58
2019-03-27T05:48:48.619Z,47.75
2019-03-27T05:49:56.119Z,40.60
2019-03-27T05:51:03.647Z,46.85
2019-03-27T05:52:11.128Z,53.13
2019-03-27T05:53:19.308Z,46.93
2019-03-27T05:54:26.793Z,47.50
2019-03-27T05:55:34.407Z,52.33
2019-03-27T05:56:42.366Z,46.92
2019-03-27T05:57:50.361Z,50.28
2019-03-27T05:58:58.183Z,41.40
2019-03-27T06:00:06.467Z,47.50
2019-03-27T06:01:14.859Z,62.90
2019-03-27T06:02:22.349Z,48.53
2019-03-27T06:03:30.009Z,41.42
2019-03-27T06:04:37.456Z,47.43
2019-03-27T06:05:45.304Z,47.60
2019-03-27T06:06:52.838Z,67.65
2019-03-27T06:08:00.615Z,44.73
2019-03-27T06:09:09.523Z,62.77
2019-03-27T06:10:17.277Z,56.60
2019-03-27T06:11:25.111Z,53.20
2019-03-27T06:12:32.660Z,62.17
2019-03-27T06:13:40.526Z,59.07
2019-03-27T06:14:48.035Z,71.05
2019-03-27T06:15:55.529Z,76.20
2019-03-27T06:17:03.499Z,54.45
2019-03-27T06:18:13.323Z,79.50
2019-03-27T06:19:20.856Z,51.25
2019-03-27T06:20:28.409Z,54.73
2019-03-27T06:21:35.921Z,54.67
2019-03-27T06:22:43.391Z,63.13
2019-03-27T06:23:50.898Z,65.63
2019-03-27T06:24:58.372Z,55.85
2019-03-27T06:26:06.280Z,51.30
2019-03-27T06:27:13.726Z,70.45
2019-03-27T06:28:21.283Z,63.30
2019-03-27T06:29:28.785Z,69.50
2019-03-27T06:30:36.308Z,53.28
2019-03-27T06:31:43.848Z,58.20
2019-03-27T06:32:51.364Z,48.10
2019-03-27T06:33:58.976Z,75.42
2019-03-27T06:35:08.169Z,59.63
2019-03-27T06:36:16.676Z,60.10
2019-03-27T06:37:24.163Z,53.98
2019-03-27T06:38:32.004Z,79.03
2019-03-27T06:39:39.519Z,70.83
2019-03-27T06:40:47.785Z,53.70
2019-03-27T06:41:56.031Z,45.80
2019-03-27T06:43:22.708Z,55.20
2019-03-27T06:44:30.189Z,78.20
2019-03-27T06:45:37.727Z,63.65
2019-03-27T06:46:45.921Z,63.80
2019-03-27T06:47:53.433Z,48.57
2019-03-27T06:49:01.260Z,57.48
2019-03-27T06:50:09.295Z,55.07
2019-03-27T06:51:16.968Z,54.13
2019-03-27T06:52:24.737Z,48.53
2019-03-27T06:53:32.980Z,51.98
2019-03-27T06:54:40.473Z,42.20
2019-03-27T06:55:48.781Z,53.20
2019-03-27T06:56:56.292Z,42.40
2019-03-27T06:58:04.573Z,55.00
2019-03-27T06:59:12.394Z,40.23
2019-03-27T07:00:24.508Z,64.85
2019-03-27T07:01:32.390Z,48.25
2019-03-27T07:02:40.261Z,40.93
2019-03-27T07:03:48.150Z,43.57
2019-03-27T07:04:55.775Z,52.27
2019-03-27T07:06:03.277Z,56.75
2019-03-27T07:07:10.824Z,40.40
2019-03-27T07:08:18.579Z,43.40
2019-03-27T07:09:26.114Z,45.05
2019-03-27T07:10:36.026Z,40.73
2019-03-27T07:11:43.994Z,45.73
2019-03-27T07:12:52.495Z,45.97
2019-03-27T07:14:00.240Z,39.40
2019-03-27T07:15:08.941Z,38.60
2019-03-27T07:16:16.450Z,39.80
2019-03-27T07:17:23.943Z,46.53
2019-03-27T07:18:40.043Z,42.23
2019-03-27T07:19:40.729Z,36.97
2019-03-27T07:20:48.538Z,43.83
2019-03-27T07:21:56.163Z,49.63
2019-03-27T07:23:04.048Z,30.05
2019-03-27T07:24:11.579Z,32.33
2019-03-27T07:25:19.111Z,47.10
2019-03-27T07:26:26.637Z,40.20
2019-03-27T07:27:34.229Z,40.80
2019-03-27T07:28:42.119Z,24.90
2019-03-27T07:29:49.653Z,31.70
2019-03-27T07:30:57.115Z,45.87
2019-03-27T07:32:04.935Z,31.12
2019-03-27T07:33:12.474Z,38.80
2019-03-27T07:34:20.414Z,27.23
2019-03-27T07:35:27.902Z,32.07
2019-03-27T07:36:36.958Z,32.70
2019-03-27T07:37:44.883Z,23.27
2019-03-27T07:38:53.203Z,20.57
2019-03-27T07:40:00.728Z,22.70
2019-03-27T07:41:08.572Z,29.83
2019-03-27T07:42:16.104Z,24.80
2019-03-27T07:43:23.857Z,27.30
2019-03-27T07:44:32.062Z,26.43
2019-03-27T07:45:39.856Z,26.63
2019-03-27T07:46:47.359Z,32.13
2019-03-27T07:47:55.252Z,30.20
2019-03-27T07:49:02.810Z,38.63
2019-03-27T07:50:11.173Z,29.03
2019-03-27T07:51:19.067Z,19.40
2019-03-27T07:52:26.899Z,23.10
2019-03-27T07:53:34.445Z,22.17
2019-03-27T07:54:41.984Z,23.03
2019-03-27T07:55:49.949Z,23.57
2019-03-27T07:56:57.521Z,30.30
2019-03-27T07:58:05.168Z,25.83
2019-03-27T07:59:13.605Z,21.03
2019-03-27T08:00:22.951Z,28.83
2019-03-27T08:01:30.729Z,19.07
2019-03-27T08:02:38.219Z,21.80
2019-03-27T08:03:46.112Z,24.20
2019-03-27T08:04:53.611Z,29.03
2019-03-27T08:06:01.499Z,23.90
2019-03-27T08:07:09.393Z,21.13
2019-03-27T08:08:17.193Z,23.97
2019-03-27T08:09:24.726Z,24.70
2019-03-27T08:10:32.614Z,22.27
2019-03-27T08:11:40.570Z,21.90
2019-03-27T08:12:48.669Z,29.67
2019-03-27T08:13:56.112Z,16.70
2019-03-27T08:15:03.744Z,23.10
2019-03-27T08:16:11.296Z,33.30
2019-03-27T08:17:19.039Z,27.20
2019-03-27T08:18:26.974Z,20.50
2019-03-27T08:19:34.527Z,23.83
2019-03-27T08:20:42.019Z,21.00
2019-03-27T08:21:49.768Z,23.40
2019-03-27T08:22:57.639Z,22.97
2019-03-27T08:24:05.243Z,22.10
2019-03-27T08:25:12.922Z,24.20
2019-03-27T08:26:20.447Z,21.60
2019-03-27T08:27:28.190Z,17.20
2019-03-27T08:28:35.669Z,20.27
2019-03-27T08:29:43.274Z,25.40
2019-03-27T08:30:51.147Z,17.50
2019-03-27T08:31:59.017Z,18.97
2019-03-27T08:33:06.810Z,21.13
2019-03-27T08:34:14.307Z,14.93
2019-03-27T08:35:21.839Z,24.20
2019-03-27T08:36:29.332Z,19.23
2019-03-27T08:37:37.223Z,20.77
2019-03-27T08:38:45.091Z,26.00
2019-03-27T08:39:53.070Z,17.80
2019-03-27T08:41:00.653Z,19.80
2019-03-27T08:42:08.106Z,23.57
2019-03-27T08:43:21.077Z,23.73
2019-03-27T08:44:25.150Z,14.53
2019-03-27T08:45:32.848Z,12.90
2019-03-27T08:46:40.477Z,12.33
2019-03-27T08:47:48.656Z,12.30
2019-03-27T08:48:56.933Z,17.03
2019-03-27T08:50:05.348Z,20.80
2019-03-27T08:51:12.935Z,16.30
2019-03-27T08:52:20.422Z,11.63
2019-03-27T08:53:27.892Z,25.27
2019-03-27T08:54:35.429Z,16.10
2019-03-27T08:55:43.252Z,20.90
2019-03-27T08:56:51.643Z,16.80
2019-03-27T08:57:59.123Z,14.40
2019-03-27T08:59:06.618Z,11.90
2019-03-27T09:00:15.091Z,21.30
2019-03-27T09:01:22.983Z,14.13
2019-03-27T09:02:30.513Z,12.57
2019-03-27T09:03:38.383Z,20.57
2019-03-27T09:04:46.168Z,13.03
2019-03-27T09:05:53.733Z,13.87
2019-03-27T09:07:03.289Z,17.83
2019-03-27T09:08:11.195Z,9.63
2019-03-27T09:09:18.672Z,14.20
2019-03-27T09:10:26.349Z,12.63
2019-03-27T09:11:34.439Z,20.10
2019-03-27T09:12:42.257Z,16.20
2019-03-27T09:13:50.638Z,11.23
2019-03-27T09:14:58.177Z,14.53
2019-03-27T09:16:06.236Z,13.80
2019-03-27T09:17:13.798Z,19.10
2019-03-27T09:18:21.266Z,14.03
2019-03-27T09:19:35.644Z,13.43
2019-03-27T09:20:38.204Z,6.20
2019-03-27T09:21:45.717Z,12.60
2019-03-27T09:22:53.225Z,15.53
2019-03-27T09:24:00.795Z,8.70
2019-03-27T09:25:08.710Z,13.33
2019-03-27T09:26:16.159Z,10.50
2019-03-27T09:27:23.671Z,8.20
2019-03-27T09:28:31.554Z,11.53
2019-03-27T09:29:39.091Z,10.23
2019-03-27T09:30:47.005Z,7.53
2019-03-27T09:31:54.555Z,9.50
2019-03-27T09:33:02.072Z,8.40
2019-03-27T09:34:10.242Z,11.90
2019-03-27T09:35:17.827Z,11.80
2019-03-27T09:36:25.406Z,14.17
2019-03-27T09:37:33.033Z,11.07
2019-03-27T09:38:40.514Z,15.90
2019-03-27T09:39:48.034Z,9.30
2019-03-27T09:40:55.528Z,9.13
2019-03-27T09:42:03.194Z,11.97
2019-03-27T09:43:11.170Z,11.10
2019-03-27T09:44:19.676Z,12.40
2019-03-27T09:45:27.333Z,6.30
2019-03-27T09:46:34.866Z,9.77
2019-03-27T09:47:42.396Z,6.30
2019-03-27T09:48:49.909Z,8.17
2019-03-27T09:49:57.894Z,6.83
2019-03-27T09:51:05.391Z,7.53
2019-03-27T09:52:12.861Z,12.30
2019-03-27T09:53:20.359Z,16.53
2019-03-27T09:54:27.836Z,11.20
2019-03-27T09:55:35.709Z,6.23
2019-03-27T09:56:43.239Z,10.97
2019-03-27T09:57:50.692Z,7.87
2019-03-27T09:58:58.213Z,5.10
2019-03-27T10:00:07.513Z,4.10
2019-03-27T10:01:15.085Z,4.20
2019-03-27T10:02:23.082Z,10.93
2019-03-27T10:03:30.587Z,4.30
2019-03-27T10:04:38.553Z,4.33
2019-03-27T10:05:46.089Z,6.30
2019-03-27T10:06:53.709Z,7.63
2019-03-27T10:08:01.225Z,3.80
2019-03-27T10:09:10.624Z,8.10
2019-03-27T10:10:18.283Z,6.83
2019-03-27T10:11:26.053Z,7.23
2019-03-27T10:12:34.085Z,6.50
2019-03-27T10:13:41.571Z,4.57
2019-03-27T10:14:49.087Z,11.23
2019-03-27T10:15:57.099Z,5.37
2019-03-27T10:17:04.665Z,9.27
2019-03-27T10:18:13.181Z,3.80
2019-03-27T10:19:20.700Z,3.03
2019-03-27T10:20:28.260Z,3.77
2019-03-27T10:21:35.792Z,5.30
2019-03-27T10:22:43.599Z,4.10
2019-03-27T10:23:51.427Z,7.30
2019-03-27T10:24:58.946Z,6.20
2019-03-27T10:26:06.521Z,6.30
2019-03-27T10:27:14.736Z,4.20
2019-03-27T10:28:22.329Z,3.43
2019-03-27T10:29:29.826Z,6.73
2019-03-27T10:30:37.676Z,2.00
2019-03-27T10:31:45.296Z,3.03
2019-03-27T10:32:53.124Z,4.87
2019-03-27T10:34:01.158Z,5.07
2019-03-27T10:35:09.607Z,7.47
2019-03-27T10:36:17.173Z,5.37
2019-03-27T10:37:24.650Z,6.77
2019-03-27T10:38:32.215Z,5.80
2019-03-27T10:39:39.849Z,11.03
2019-03-27T10:40:47.897Z,3.83
2019-03-27T10:41:55.858Z,4.60
2019-03-27T10:43:03.408Z,4.57
2019-03-27T10:44:10.980Z,4.73
2019-03-27T10:45:18.782Z,8.53
2019-03-27T10:46:26.264Z,3.20
2019-03-27T10:47:34.695Z,5.47
2019-03-27T10:48:52.558Z,2.30
2019-03-27T10:49:51.797Z,9.27
2019-03-27T10:51:00.140Z,7.50
2019-03-27T10:52:07.867Z,6.07
2019-03-27T10:53:15.783Z,4.87
2019-03-27T10:54:23.690Z,5.07
2019-03-27T10:55:34.461Z,3.60
2019-03-27T10:56:41.394Z,7.70
2019-03-27T10:57:48.922Z,5.23
2019-03-27T10:58:57.259Z,6.53
2019-03-27T11:00:06.082Z,5.93
2019-03-27T11:01:13.637Z,3.70
2019-03-27T11:02:21.111Z,5.80
2019-03-27T11:03:28.573Z,5.43
2019-03-27T11:04:36.233Z,4.70
2019-03-27T11:05:43.842Z,6.87
2019-03-27T11:06:52.065Z,7.83
2019-03-27T11:07:59.527Z,7.30
2019-03-27T11:09:10.379Z,8.97
2019-03-27T11:10:18.139Z,4.70
2019-03-27T11:11:25.637Z,3.03
2019-03-27T11:12:33.305Z,4.70
2019-03-27T11:13:41.107Z,7.63
2019-03-27T11:14:48.562Z,4.60
2019-03-27T11:15:56.057Z,4.27
2019-03-27T11:17:03.563Z,6.93
2019-03-27T11:18:11.483Z,7.00
2019-03-27T11:19:19.290Z,6.37
2019-03-27T11:20:31.173Z,9.87
2019-03-27T11:21:36.422Z,3.17
2019-03-27T11:22:44.105Z,4.10
2019-03-27T11:23:52.237Z,9.63
2019-03-27T11:25:00.108Z,4.20
2019-03-27T11:26:07.952Z,5.33
2019-03-27T11:27:15.760Z,5.40
2019-03-27T11:28:23.612Z,4.70
2019-03-27T11:29:31.127Z,4.60
2019-03-27T11:30:41.751Z,5.37
2019-03-27T11:31:49.595Z,2.73
2019-03-27T11:32:57.478Z,3.40
2019-03-27T11:34:05.033Z,4.70
2019-03-27T11:35:12.971Z,4.30
2019-03-27T11:36:20.493Z,6.03
2019-03-27T11:37:28.311Z,18.13
2019-03-27T11:38:37.506Z,4.30
2019-03-27T11:39:45.234Z,5.57
2019-03-27T11:40:52.757Z,11.63
2019-03-27T11:42:01.014Z,12.57
2019-03-27T11:43:09.123Z,7.70
2019-03-27T11:44:17.245Z,7.73
2019-03-27T11:45:24.761Z,6.90
2019-03-27T11:46:32.576Z,7.87
2019-03-27T11:47:40.068Z,3.67
2019-03-27T11:48:47.555Z,6.33
2019-03-27T11:49:55.009Z,8.13
2019-03-27T11:51:03.177Z,11.07
2019-03-27T11:52:11.203Z,9.60
2019-03-27T11:53:19.019Z,7.10
2019-03-27T11:54:26.754Z,4.30
2019-03-27T11:55:34.327Z,10.07
2019-03-27T11:56:41.784Z,7.57
2019-03-27T11:57:50.070Z,6.33
2019-03-27T11:58:57.628Z,3.80
2019-03-27T12:00:06.246Z,3.87
2019-03-27T12:01:13.690Z,6.60
2019-03-27T12:02:21.178Z,4.80
2019-03-27T12:03:30.018Z,7.13
2019-03-27T12:04:37.873Z,4.33
2019-03-27T12:05:45.818Z,6.23
2019-03-27T12:06:53.620Z,6.57
2019-03-27T12:08:01.176Z,7.07
2019-03-27T12:09:10.473Z,5.87
2019-03-27T12:10:18.388Z,7.23
2019-03-27T12:11:25.952Z,7.70
2019-03-27T12:12:33.444Z,6.00
2019-03-27T12:13:40.953Z,4.83
2019-03-27T12:14:48.806Z,5.40
2019-03-27T12:15:56.643Z,8.97
2019-03-27T12:17:04.519Z,9.00
2019-03-27T12:18:16.821Z,4.30
2019-03-27T12:19:24.688Z,6.53
2019-03-27T12:20:32.566Z,7.30
2019-03-27T12:21:40.059Z,5.43
2019-03-27T12:22:57.320Z,6.37
2019-03-27T12:23:58.415Z,6.10
2019-03-27T12:25:06.894Z,3.23
2019-03-27T12:26:14.376Z,6.73
2019-03-27T12:27:22.215Z,15.60
2019-03-27T12:28:30.436Z,6.37
2019-03-27T12:29:38.533Z,7.43
2019-03-27T12:30:46.097Z,7.87
2019-03-27T12:31:54.076Z,2.93
2019-03-27T12:33:02.395Z,6.00
2019-03-27T12:34:10.216Z,5.10
2019-03-27T12:35:18.236Z,6.53
2019-03-27T12:36:25.709Z,7.63
2019-03-27T12:37:33.678Z,3.93
2019-03-27T12:38:41.749Z,8.00
2019-03-27T12:39:49.308Z,3.73
2019-03-27T12:40:56.842Z,8.83
2019-03-27T12:42:04.420Z,7.20
2019-03-27T12:43:11.919Z,6.90
2019-03-27T12:44:19.814Z,5.20
2019-03-27T12:45:27.569Z,4.97
2019-03-27T12:46:35.549Z,2.63
2019-03-27T12:47:43.383Z,7.93
2019-03-27T12:48:51.083Z,4.87
2019-03-27T12:49:58.589Z,5.97
2019-03-27T12:51:12.702Z,5.47
2019-03-27T12:52:16.114Z,3.23
2019-03-27T12:53:23.956Z,2.87
2019-03-27T12:54:31.637Z,4.37
2019-03-27T12:55:39.388Z,6.97
2019-03-27T12:56:46.882Z,3.90
2019-03-27T12:57:54.351Z,6.50
2019-03-27T12:59:01.825Z,5.60
2019-03-27T13:00:11.505Z,8.67
2019-03-27T13:01:19.323Z,8.77
2019-03-27T13:02:26.864Z,8.07
2019-03-27T13:03:35.031Z,5.17
2019-03-27T13:04:42.527Z,5.37
2019-03-27T13:05:50.802Z,3.70
2019-03-27T13:06:58.702Z,8.33
2019-03-27T13:08:06.444Z,3.53
2019-03-27T13:09:14.790Z,5.20
2019-03-27T13:10:22.215Z,5.07
2019-03-27T13:11:30.552Z,6.33
2019-03-27T13:12:38.463Z,4.87
2019-03-27T13:13:46.241Z,5.17
2019-03-27T13:14:53.727Z,3.83
2019-03-27T13:16:01.247Z,4.83
2019-03-27T13:17:09.512Z,6.30
2019-03-27T13:18:17.412Z,4.60
2019-03-27T13:19:25.345Z,4.27
2019-03-27T13:20:32.799Z,7.60
2019-03-27T13:21:40.839Z,10.13
2019-03-27T13:22:48.515Z,3.00
2019-03-27T13:23:55.969Z,3.97
2019-03-27T13:25:04.192Z,5.17
2019-03-27T13:26:11.698Z,4.83
2019-03-27T13:27:19.171Z,3.77
2019-03-27T13:28:26.672Z,5.07
2019-03-27T13:29:35.086Z,3.90
2019-03-27T13:30:43.033Z,8.77
2019-03-27T13:31:50.477Z,5.17
2019-03-27T13:32:57.935Z,7.00
2019-03-27T13:34:05.499Z,3.70
2019-03-27T13:35:13.632Z,3.93
2019-03-27T13:36:21.122Z,6.00
2019-03-27T13:37:28.603Z,4.67
2019-03-27T13:38:36.228Z,9.33
2019-03-27T13:39:44.089Z,4.70
2019-03-27T13:40:51.635Z,13.93
2019-03-27T13:41:59.479Z,8.37
2019-03-27T13:43:07.174Z,6.30
2019-03-27T13:44:14.987Z,4.93
2019-03-27T13:45:23.115Z,4.40
2019-03-27T13:46:31.407Z,13.53
2019-03-27T13:47:38.899Z,7.33
2019-03-27T13:48:46.611Z,8.80
2019-03-27T13:49:54.093Z,8.37
2019-03-27T13:51:01.937Z,6.60
2019-03-27T13:52:09.720Z,6.30
2019-03-27T13:53:18.151Z,7.93
2019-03-27T13:54:25.647Z,5.73
2019-03-27T13:55:35.070Z,6.47
2019-03-27T13:56:42.752Z,6.57
2019-03-27T13:57:50.213Z,8.43
2019-03-27T13:58:57.675Z,4.70
2019-03-27T14:00:06.503Z,3.70
2019-03-27T14:01:14.648Z,6.00
2019-03-27T14:02:22.452Z,5.13
2019-03-27T14:03:29.978Z,9.30
2019-03-27T14:04:37.428Z,9.10
2019-03-27T14:05:45.139Z,14.43
2019-03-27T14:06:52.645Z,6.13
2019-03-27T14:08:00.164Z,5.37
2019-03-27T14:09:09.853Z,5.57
2019-03-27T14:10:18.152Z,12.27
2019-03-27T14:11:26.697Z,8.07
2019-03-27T14:12:34.252Z,7.30
2019-03-27T14:13:43.371Z,8.23
2019-03-27T14:14:51.475Z,7.13
2019-03-27T14:15:59.002Z,8.70
2019-03-27T14:17:06.619Z,6.77
2019-03-27T14:18:14.104Z,7.07
2019-03-27T14:19:21.647Z,6.70
2019-03-27T14:20:29.130Z,13.90
2019-03-27T14:21:36.790Z,4.03
2019-03-27T14:22:44.303Z,7.33
2019-03-27T14:23:51.786Z,9.43
2019-03-27T14:24:59.381Z,7.43
2019-03-27T14:26:06.842Z,5.70
2019-03-27T14:27:14.935Z,5.63
2019-03-27T14:28:22.371Z,5.93
2019-03-27T14:29:29.893Z,9.40
2019-03-27T14:30:57.640Z,6.77
2019-03-27T14:32:05.104Z,6.70
2019-03-27T14:33:12.586Z,7.07
2019-03-27T14:34:20.735Z,8.00
2019-03-27T14:35:29.172Z,9.10
2019-03-27T14:36:36.750Z,13.00
2019-03-27T14:37:44.217Z,5.63
2019-03-27T14:38:52.010Z,7.03
2019-03-27T14:39:59.562Z,10.27
2019-03-27T14:41:07.860Z,9.93
2019-03-27T14:42:16.366Z,6.87
2019-03-27T14:43:26.986Z,9.20